Time;durP1;ratioP1;P1;durP2;ratioP2;P2;SDS_P1;SDS_P2;PMS_P1;PMS_P2;Temp;Humidity;BMP_temperature;BMP_pressure;BME280_temperature;BME280_humidity;BME280_pressure;Samples;Min_cycle;Max_cycle;Signal;HPM_P1;HPM_P2
2024/03/06 00:00:33;;;;;;;6.88;2.78;;;-3.30;86.20;;;;;;4947168;28;20035;-80
2024/03/06 00:02:58;;;;;;;6.18;3.03;;;-3.30;85.90;;;;;;4952864;29;20065;-79
2024/03/06 00:05:24;;;;;;;5.13;2.42;;;-3.40;85.70;;;;;;4952549;29;20046;-79
2024/03/06 00:07:50;;;;;;;6.22;3.10;;;-3.40;85.50;;;;;;4951108;29;20051;-79
2024/03/06 00:10:17;;;;;;;8.67;3.10;;;-3.40;85.30;;;;;;4945228;29;20390;-81
2024/03/06 00:12:42;;;;;;;6.20;2.65;;;-3.50;85.30;;;;;;4940634;29;20038;-79
2024/03/06 00:15:08;;;;;;;4.32;2.47;;;-3.60;85.60;;;;;;4942864;29;20401;-79
2024/03/06 00:17:34;;;;;;;5.75;3.30;;;-3.60;85.90;;;;;;4957902;28;20035;-78
2024/03/06 00:20:00;;;;;;;5.57;2.97;;;-3.60;86.20;;;;;;4950619;29;20035;-80
2024/03/06 00:22:26;;;;;;;6.07;2.58;;;-3.60;86.00;;;;;;4941549;29;20031;-80
2024/03/06 00:24:52;;;;;;;5.15;2.63;;;-3.70;85.80;;;;;;4947488;28;20033;-78
2024/03/06 00:27:18;;;;;;;5.95;3.05;;;-3.70;86.00;;;;;;4942525;29;20042;-79
2024/03/06 00:29:44;;;;;;;9.80;3.20;;;-3.80;86.10;;;;;;4941634;29;20028;-79
2024/03/06 00:32:09;;;;;;;3.47;2.20;;;-3.80;86.90;;;;;;4953876;28;20030;-81
2024/03/06 00:34:35;;;;;;;4.07;2.28;;;-3.90;86.20;;;;;;4943035;28;20025;-80
2024/03/06 00:37:01;;;;;;;5.13;2.10;;;-3.90;85.90;;;;;;4939442;28;20394;-79
2024/03/06 00:39:27;;;;;;;4.80;2.55;;;-3.90;85.80;;;;;;4938677;29;20027;-81
2024/03/06 00:41:53;;;;;;;8.18;3.20;;;-4.00;85.90;;;;;;4944173;29;20507;-78
2024/03/06 00:44:19;;;;;;;7.32;2.95;;;-4.00;85.80;;;;;;4951055;28;20035;-79
2024/03/06 00:46:45;;;;;;;5.10;3.45;;;-4.00;85.70;;;;;;4953613;29;20031;-79
2024/03/06 00:49:11;;;;;;;7.35;2.80;;;-4.00;85.60;;;;;;4950407;28;20118;-79
2024/03/06 00:51:36;;;;;;;5.15;2.53;;;-4.00;85.70;;;;;;4944056;29;20079;-79
2024/03/06 00:54:04;;;;;;;5.28;2.33;;;-4.10;85.70;;;;;;4939068;29;20026;-77
2024/03/06 00:56:30;;;;;;;6.15;3.17;;;-4.10;85.70;;;;;;4937960;29;20026;-78
2024/03/06 00:58:56;;;;;;;4.07;2.40;;;-4.10;85.80;;;;;;4939789;29;20035;-78
2024/03/06 01:01:22;;;;;;;5.32;3.25;;;-4.20;85.50;;;;;;4947986;29;20020;-79
2024/03/06 01:03:48;;;;;;;4.78;2.80;;;-4.20;85.50;;;;;;4944860;29;20027;-78
2024/03/06 01:06:14;;;;;;;6.35;2.72;;;-4.20;85.30;;;;;;4940629;29;20443;-79
2024/03/06 01:08:41;;;;;;;4.68;2.22;;;-4.20;85.10;;;;;;4939857;29;20134;-81
2024/03/06 01:11:06;;;;;;;8.57;3.42;;;-4.20;85.20;;;;;;4942929;29;20408;-79
2024/03/06 01:13:32;;;;;;;5.82;3.08;;;-4.20;85.30;;;;;;4950052;29;20087;-79
2024/03/06 01:15:58;;;;;;;4.07;2.90;;;-4.30;84.90;;;;;;4941375;29;20413;-79
2024/03/06 01:18:24;;;;;;;5.00;2.50;;;-4.30;85.00;;;;;;4939637;29;20027;-79
2024/03/06 01:20:50;;;;;;;5.30;2.22;;;-4.30;85.20;;;;;;4941305;29;20036;-80
2024/03/06 01:23:16;;;;;;;4.22;2.10;;;-4.40;85.30;;;;;;4963741;28;20079;-79
2024/03/06 01:25:42;;;;;;;4.78;2.80;;;-4.50;85.50;;;;;;4941103;29;20470;-78
2024/03/06 01:28:08;;;;;;;3.20;2.42;;;-4.50;85.50;;;;;;4949683;28;20042;-79
2024/03/06 01:30:34;;;;;;;2.90;2.13;;;-4.50;85.60;;;;;;4953662;29;20031;-79
2024/03/06 01:33:00;;;;;;;3.78;1.83;;;-4.50;85.60;;;;;;4969046;28;20039;-78
2024/03/06 01:35:25;;;;;;;3.25;2.83;;;-4.50;85.50;;;;;;4952244;28;20401;-78
2024/03/06 01:37:51;;;;;;;4.05;2.22;;;-4.50;85.40;;;;;;4951994;28;20508;-80
2024/03/06 01:40:17;;;;;;;3.28;2.50;;;-4.50;85.30;;;;;;4952355;29;20026;-79
2024/03/06 01:42:43;;;;;;;4.80;2.55;;;-4.50;85.40;;;;;;4953931;28;20039;-79
2024/03/06 01:45:09;;;;;;;3.45;2.08;;;-4.50;85.40;;;;;;4948977;28;20023;-80
2024/03/06 01:47:35;;;;;;;6.83;2.43;;;-4.50;85.40;;;;;;4946882;28;20115;-80
2024/03/06 01:50:03;;;;;;;5.97;2.95;;;-4.60;85.30;;;;;;4956266;28;20032;-78
2024/03/06 01:52:29;;;;;;;;;;;-4.60;85.40;;;;;;4951085;28;20477;-79
2024/03/06 01:54:56;;;;;;;3.65;2.55;;;-4.60;85.30;;;;;;4946654;29;20006;-80
2024/03/06 01:57:22;;;;;;;4.15;2.38;;;-4.60;85.10;;;;;;4952649;29;20098;-79
2024/03/06 01:59:49;;;;;;;9.30;3.00;;;-4.60;85.10;;;;;;4950409;28;20028;-79
2024/03/06 02:02:15;;;;;;;5.97;3.22;;;-4.60;85.20;;;;;;4943504;29;20086;-77
2024/03/06 02:04:41;;;;;;;13.35;3.88;;;-4.70;85.30;;;;;;4953750;28;20118;-79
2024/03/06 02:07:10;;;;;;;4.75;2.30;;;-4.70;85.40;;;;;;4946106;29;20466;-78
2024/03/06 02:09:37;;;;;;;3.08;2.30;;;-4.70;85.40;;;;;;4948086;29;20114;-80
2024/03/06 02:12:03;;;;;;;4.97;2.20;;;-4.70;85.20;;;;;;4949909;29;20031;-79
2024/03/06 02:14:29;;;;;;;7.97;2.42;;;-4.70;85.10;;;;;;4956515;29;20032;-79
2024/03/06 02:16:55;;;;;;;3.70;2.40;;;-4.80;85.00;;;;;;4968818;28;20016;-80
2024/03/06 02:19:21;;;;;;;4.95;2.50;;;-4.70;85.10;;;;;;4943850;29;20039;-79
2024/03/06 02:21:47;;;;;;;4.90;2.15;;;-4.70;85.10;;;;;;4951760;29;20028;-80
2024/03/06 02:24:14;;;;;;;6.30;3.92;;;-4.70;85.20;;;;;;4968177;28;20037;-79
2024/03/06 02:26:40;;;;;;;5.15;2.70;;;-4.70;85.30;;;;;;4951992;28;20031;-79
2024/03/06 02:29:06;;;;;;;3.78;2.33;;;-4.80;85.30;;;;;;4950964;29;20155;-79
2024/03/06 02:31:33;;;;;;;5.03;2.50;;;-4.80;85.30;;;;;;4968531;28;20031;-79
2024/03/06 02:33:59;;;;;;;3.53;1.58;;;-4.80;85.20;;;;;;4953177;29;20026;-79
2024/03/06 02:36:25;;;;;;;5.38;2.38;;;-4.80;85.10;;;;;;4943224;28;20027;-80
2024/03/06 02:38:51;;;;;;;3.42;2.25;;;-4.80;85.00;;;;;;4948567;29;20030;-79
2024/03/06 02:41:17;;;;;;;5.88;2.83;;;-4.80;85.10;;;;;;4951857;29;20031;-81
2024/03/06 02:43:43;;;;;;;3.85;2.40;;;-4.80;85.10;;;;;;4951309;29;20126;-79
2024/03/06 02:46:09;;;;;;;3.33;2.30;;;-4.80;85.10;;;;;;4951145;29;20031;-79
2024/03/06 02:48:35;;;;;;;5.22;2.47;;;-4.80;85.20;;;;;;4952727;29;20042;-80
2024/03/06 02:51:01;;;;;;;8.88;2.78;;;-4.90;85.20;;;;;;4951445;28;20030;-80
2024/03/06 02:53:27;;;;;;;5.10;3.13;;;-4.80;85.30;;;;;;4950552;28;20511;-80
2024/03/06 02:55:53;;;;;;;3.95;2.47;;;-4.90;85.20;;;;;;4947060;28;20428;-80
2024/03/06 02:58:19;;;;;;;9.32;3.42;;;-4.80;85.10;;;;;;4939438;29;20055;-79
2024/03/06 03:00:45;;;;;;;4.00;2.53;;;-4.90;85.00;;;;;;4949654;29;20486;-78
2024/03/06 03:03:11;;;;;;;5.13;2.92;;;-4.90;84.90;;;;;;4958124;28;20086;-80
2024/03/06 03:05:38;;;;;;;5.18;2.40;;;-4.80;84.70;;;;;;4945585;28;20382;-79
2024/03/06 03:08:08;;;;;;;4.13;2.63;;;-4.80;84.80;;;;;;4939110;29;20078;-78
2024/03/06 03:10:34;;;;;;;7.93;4.45;;;-4.80;84.80;;;;;;4940886;29;20031;-80
2024/03/06 03:13:00;;;;;;;4.45;2.67;;;-4.80;84.70;;;;;;4947309;29;20034;-79
2024/03/06 03:15:26;;;;;;;5.32;4.07;;;-4.80;84.80;;;;;;4943095;29;20031;-80
2024/03/06 03:17:52;;;;;;;5.38;3.17;;;-4.80;84.80;;;;;;4939460;29;20482;-78
2024/03/06 03:20:18;;;;;;;4.30;2.45;;;-4.90;85.00;;;;;;4945100;29;20426;-79
2024/03/06 03:22:43;;;;;;;5.25;3.00;;;-4.90;85.00;;;;;;4937659;29;20123;-78
2024/03/06 03:25:11;;;;;;;5.53;2.97;;;-4.90;85.00;;;;;;4951976;29;20059;-79
2024/03/06 03:27:40;;;;;;;7.35;3.10;;;-5.00;84.90;;;;;;4951629;28;20115;-79
2024/03/06 03:30:13;;;;;;;7.55;2.92;;;-5.00;84.70;;;;;;4940946;28;20026;-79
2024/03/06 03:32:38;;;;;;;4.55;2.78;;;-5.00;84.50;;;;;;4944169;29;20106;-78
2024/03/06 03:35:08;;;;;;;7.43;3.35;;;-5.00;83.90;;;;;;4953262;28;20054;-79
2024/03/06 03:37:34;;;;;;;5.18;3.05;;;-5.10;83.40;;;;;;4955134;29;20102;-81
2024/03/06 03:40:00;;;;;;;3.92;2.60;;;-5.10;83.50;;;;;;4948482;28;20045;-79
2024/03/06 03:42:25;;;;;;;5.85;2.78;;;-5.10;83.40;;;;;;4951786;29;20110;-79
2024/03/06 03:44:51;;;;;;;4.90;3.22;;;-5.10;83.30;;;;;;4947302;29;20396;-80
2024/03/06 03:47:17;;;;;;;6.30;3.05;;;-5.10;83.30;;;;;;4956598;28;20482;-79
2024/03/06 03:49:43;;;;;;;9.40;3.38;;;-5.20;83.20;;;;;;4958022;28;20062;-79
2024/03/06 03:52:09;;;;;;;4.90;2.90;;;-5.20;83.20;;;;;;4955745;28;20019;-80
2024/03/06 03:54:35;;;;;;;4.57;2.53;;;-5.20;83.30;;;;;;4951278;28;20108;-80
2024/03/06 03:57:01;;;;;;;6.05;2.80;;;-5.20;83.50;;;;;;4948071;29;20027;-78
2024/03/06 03:59:27;;;;;;;6.80;3.28;;;-5.20;83.20;;;;;;4942278;28;20055;-78
2024/03/06 04:01:53;;;;;;;7.90;3.30;;;-5.20;82.80;;;;;;4938645;29;20023;-79
2024/03/06 04:04:19;;;;;;;8.13;3.97;;;-5.20;83.00;;;;;;4952508;29;20031;-77
2024/03/06 04:06:47;;;;;;;4.20;2.13;;;-5.20;83.10;;;;;;4950780;28;20036;-78
2024/03/06 04:09:14;;;;;;;8.98;3.30;;;-5.20;83.10;;;;;;4939530;29;20126;-78
2024/03/06 04:11:40;;;;;;;5.88;2.40;;;-5.20;82.80;;;;;;4939123;28;20023;-80
2024/03/06 04:14:07;;;;;;;3.60;2.47;;;-5.20;82.60;;;;;;4950995;29;20031;-78
2024/03/06 04:16:33;;;;;;;5.65;2.75;;;-5.20;82.70;;;;;;4942052;28;20019;-79
2024/03/06 04:18:59;;;;;;;2.97;2.17;;;-5.20;82.80;;;;;;4941235;29;20028;-77
2024/03/06 04:21:25;;;;;;;5.38;2.80;;;-5.30;82.80;;;;;;4943296;29;20359;-78
2024/03/06 04:23:51;;;;;;;8.80;3.92;;;-5.30;82.80;;;;;;4941098;29;20047;-79
2024/03/06 04:26:17;;;;;;;4.95;2.67;;;-5.20;83.00;;;;;;4946650;29;20535;-78
2024/03/06 04:28:43;;;;;;;5.25;3.10;;;-5.20;82.90;;;;;;4948351;28;20140;-80
2024/03/06 04:31:09;;;;;;;4.82;3.28;;;-5.20;83.10;;;;;;4951572;29;20019;-81
2024/03/06 04:33:35;;;;;;;5.38;3.13;;;-5.20;83.20;;;;;;4951301;28;20036;-80
2024/03/06 04:36:11;;;;;;;5.90;2.70;;;-5.20;83.40;;;;;;4953161;29;20030;-80
2024/03/06 04:38:37;;;;;;;9.80;4.20;;;-5.10;83.50;;;;;;4947132;29;20031;-81
2024/03/06 04:41:06;;;;;;;7.72;4.43;;;-5.10;83.30;;;;;;4953360;28;20079;-79
2024/03/06 04:43:32;;;;;;;6.68;3.15;;;-5.00;83.40;;;;;;4950784;28;20047;-79
2024/03/06 04:45:58;;;;;;;6.45;3.42;;;-5.00;82.60;;;;;;4953110;29;20019;-81
2024/03/06 04:48:24;;;;;;;6.38;3.33;;;-5.00;82.50;;;;;;4949923;29;20066;-79
2024/03/06 04:50:49;;;;;;;4.18;3.00;;;-5.00;82.40;;;;;;4962851;28;20178;-80
2024/03/06 04:53:16;;;;;;;7.00;3.72;;;-5.00;82.50;;;;;;4952920;28;20418;-80
2024/03/06 04:55:42;;;;;;;7.28;4.35;;;-5.00;82.40;;;;;;4953467;28;20397;-80
2024/03/06 04:58:08;;;;;;;7.80;4.00;;;-5.00;82.30;;;;;;4956512;29;20028;-80
2024/03/06 05:00:34;;;;;;;10.77;4.65;;;-5.00;82.40;;;;;;4956798;28;20106;-80
2024/03/06 05:03:00;;;;;;;8.23;4.50;;;-5.00;82.30;;;;;;4952951;29;20070;-80
2024/03/06 05:05:26;;;;;;;9.93;4.53;;;-4.90;82.30;;;;;;4952315;29;20023;-79
2024/03/06 05:07:52;;;;;;;11.07;5.38;;;-4.90;82.20;;;;;;4949140;28;20047;-80
2024/03/06 05:10:18;;;;;;;16.17;5.50;;;-4.90;82.20;;;;;;4950332;29;20111;-79
2024/03/06 05:12:44;;;;;;;13.48;4.47;;;-4.90;81.90;;;;;;4950094;28;20034;-79
2024/03/06 05:15:11;;;;;;;9.93;4.93;;;-4.90;81.70;;;;;;4947252;29;20032;-79
2024/03/06 05:17:37;;;;;;;7.35;4.30;;;-4.90;81.40;;;;;;4948188;28;20094;-81
2024/03/06 05:20:06;;;;;;;10.43;4.82;;;-4.80;81.10;;;;;;4943443;28;20028;-80
2024/03/06 05:22:32;;;;;;;7.95;4.72;;;-4.80;81.00;;;;;;4941965;29;20027;-80
2024/03/06 05:24:58;;;;;;;7.60;4.57;;;-4.90;80.70;;;;;;4947301;28;20031;-80
2024/03/06 05:27:24;;;;;;;10.95;4.80;;;-4.90;80.90;;;;;;4950174;29;20553;-79
2024/03/06 05:29:51;;;;;;;17.40;5.47;;;-4.80;81.00;;;;;;4950320;28;20094;-81
2024/03/06 05:32:16;;;;;;;13.25;5.20;;;-4.80;80.80;;;;;;4950220;29;20027;-77
2024/03/06 05:34:43;;;;;;;13.40;5.82;;;-4.80;80.70;;;;;;4951957;28;20417;-80
2024/03/06 05:37:09;;;;;;;11.07;6.45;;;-4.70;80.90;;;;;;4949185;28;20028;-81
2024/03/06 05:39:35;;;;;;;9.85;5.75;;;-4.70;80.80;;;;;;4950748;28;20027;-78
2024/03/06 05:42:05;;;;;;;7.97;4.90;;;-4.70;80.50;;;;;;4951425;28;20473;-79
2024/03/06 05:44:31;;;;;;;9.20;5.63;;;-4.70;80.50;;;;;;4967431;28;20023;-79
2024/03/06 05:47:01;;;;;;;17.45;7.60;;;-4.70;80.50;;;;;;4951750;28;20023;-80
2024/03/06 05:49:28;;;;;;;11.15;4.80;;;-4.70;80.50;;;;;;4964417;28;20031;-80
2024/03/06 05:51:55;;;;;;;10.93;5.28;;;-4.70;80.10;;;;;;4939301;29;20032;-80
2024/03/06 05:54:21;;;;;;;;;;;-4.70;80.10;;;;;;4941544;28;20058;-81
2024/03/06 05:56:51;;;;;;;9.13;5.80;;;-4.50;80.30;;;;;;4946954;28;19911;-79
2024/03/06 05:59:18;;;;;;;8.77;4.50;;;-4.40;79.20;;;;;;4950037;28;20110;-81
2024/03/06 06:01:44;;;;;;;8.52;6.03;;;-4.40;78.70;;;;;;4949059;28;20028;-80
2024/03/06 06:04:11;;;;;;;7.15;4.28;;;-4.50;78.80;;;;;;4949030;28;20378;-80
2024/03/06 06:06:37;;;;;;;9.98;4.20;;;-4.50;78.80;;;;;;4949144;29;20032;-79
2024/03/06 06:09:06;;;;;;;8.35;4.60;;;-4.50;79.00;;;;;;4953860;29;20046;-82
2024/03/06 06:11:35;;;;;;;8.20;4.20;;;-4.40;79.10;;;;;;4950637;28;20135;-81
2024/03/06 06:14:01;;;;;;;10.88;4.90;;;-4.30;79.10;;;;;;4944290;29;20059;-82
2024/03/06 06:16:34;;;;;;;9.35;4.22;;;-4.20;78.70;;;;;;4957307;28;20023;-86
2024/03/06 06:19:00;;;;;;;9.30;5.60;;;-4.00;78.20;;;;;;4945865;28;20087;-84
2024/03/06 06:21:25;;;;;;;10.02;5.05;;;-3.90;77.70;;;;;;4943406;28;20032;-85
2024/03/06 06:23:52;;;;;;;15.00;5.72;;;-3.80;77.60;;;;;;4935621;29;20482;-83
2024/03/06 06:26:17;;;;;;;11.07;5.50;;;-3.50;77.50;;;;;;4935279;28;20020;-83
2024/03/06 06:28:43;;;;;;;16.33;5.28;;;-3.30;76.60;;;;;;4937242;29;20099;-83
2024/03/06 06:31:09;;;;;;;9.93;4.07;;;-3.00;75.70;;;;;;4946387;28;20026;-82
2024/03/06 06:33:35;;;;;;;6.80;4.35;;;-2.70;75.00;;;;;;4941081;28;20020;-83
2024/03/06 06:36:01;;;;;;;14.65;4.75;;;-2.50;73.50;;;;;;4943504;29;20366;-84
2024/03/06 06:38:30;;;;;;;13.25;5.88;;;-2.40;73.30;;;;;;4938930;28;20031;-83
2024/03/06 06:40:56;;;;;;;8.18;3.78;;;-2.20;73.20;;;;;;4953769;28;20106;-83
2024/03/06 06:43:22;;;;;;;7.05;3.72;;;-2.10;72.60;;;;;;4939828;28;20033;-81
2024/03/06 06:45:48;;;;;;;12.98;4.63;;;-2.00;72.20;;;;;;4953267;29;20027;-85
2024/03/06 06:48:14;;;;;;;18.27;4.90;;;-1.80;72.00;;;;;;4946545;28;20094;-84
2024/03/06 06:50:40;;;;;;;15.68;4.30;;;-1.50;71.50;;;;;;4958802;28;20031;-82
2024/03/06 06:53:06;;;;;;;9.43;4.43;;;-1.50;69.70;;;;;;4959532;29;20086;-84
2024/03/06 06:55:32;;;;;;;16.85;5.18;;;-1.60;68.90;;;;;;4961865;29;20027;-83
2024/03/06 06:57:58;;;;;;;21.08;6.55;;;-1.40;68.70;;;;;;4953997;29;20218;-85
2024/03/06 07:00:25;;;;;;;11.77;5.63;;;-1.20;68.80;;;;;;4948343;29;20497;-84
2024/03/06 07:02:51;;;;;;;10.88;5.93;;;-1.10;67.80;;;;;;4957636;28;20392;-82
2024/03/06 07:05:17;;;;;;;12.20;5.63;;;-1.10;67.10;;;;;;4957686;28;20032;-83
2024/03/06 07:07:43;;;;;;;11.02;5.55;;;-1.00;67.10;;;;;;4956852;28;20167;-83
2024/03/06 07:10:10;;;;;;;20.13;6.25;;;-0.80;67.10;;;;;;4957004;28;20051;-84
2024/03/06 07:12:36;;;;;;;15.93;6.38;;;-0.60;66.60;;;;;;4955867;28;20031;-82
2024/03/06 07:15:02;;;;;;;16.45;6.75;;;-0.40;66.20;;;;;;4956605;28;20019;-83
2024/03/06 07:17:28;;;;;;;14.30;7.35;;;-0.20;65.50;;;;;;4956993;28;20023;-84
2024/03/06 07:19:54;;;;;;;15.80;6.55;;;-0.10;64.80;;;;;;4956763;28;20098;-84
2024/03/06 07:22:20;;;;;;;22.45;7.43;;;-0.20;64.50;;;;;;4956791;28;20027;-84
2024/03/06 07:24:46;;;;;;;12.27;5.97;;;-0.20;63.90;;;;;;4956820;29;20838;-82
2024/03/06 07:27:12;;;;;;;10.80;4.57;;;-0.30;63.20;;;;;;4956726;28;20441;-85
2024/03/06 07:29:38;;;;;;;11.35;5.32;;;-0.30;62.70;;;;;;4955583;28;20028;-85
2024/03/06 07:32:07;;;;;;;12.43;4.85;;;-0.20;62.90;;;;;;4956517;28;20094;-85
2024/03/06 07:34:33;;;;;;;11.93;4.07;;;-0.40;62.30;;;;;;4956559;28;20366;-84
2024/03/06 07:36:59;;;;;;;6.85;4.10;;;-0.30;62.90;;;;;;4956692;28;20031;-84
2024/03/06 07:39:25;;;;;;;7.68;3.22;;;0.00;62.40;;;;;;4958264;28;20028;-84
2024/03/06 07:41:51;;;;;;;9.20;3.55;;;0.10;61.60;;;;;;4960421;28;20035;-81
2024/03/06 07:44:17;;;;;;;7.30;3.70;;;0.00;61.10;;;;;;4955931;28;20035;-82
2024/03/06 07:46:43;;;;;;;8.30;3.70;;;-0.30;61.40;;;;;;4956111;28;20027;-85
2024/03/06 07:49:09;;;;;;;9.40;4.13;;;-0.40;62.30;;;;;;4955943;29;20032;-83
2024/03/06 07:51:35;;;;;;;8.45;4.00;;;-0.10;62.20;;;;;;4957461;29;20031;-82
2024/03/06 07:54:03;;;;;;;11.07;4.20;;;0.20;61.60;;;;;;4972572;28;20532;-84
2024/03/06 07:56:30;;;;;;;12.90;4.70;;;0.30;61.20;;;;;;4956679;28;20019;-85
2024/03/06 07:58:56;;;;;;;6.03;3.42;;;0.40;60.90;;;;;;4957437;28;20023;-83
2024/03/06 08:01:22;;;;;;;11.82;4.40;;;0.60;60.60;;;;;;4955253;29;20042;-84
2024/03/06 08:03:48;;;;;;;18.40;5.05;;;0.80;59.80;;;;;;4956665;28;20036;-83
2024/03/06 08:06:15;;;;;;;9.10;3.47;;;1.00;59.90;;;;;;4954554;29;20371;-83
2024/03/06 08:08:43;;;;;;;6.95;3.78;;;1.40;58.90;;;;;;4955597;28;20102;-84
2024/03/06 08:11:10;;;;;;;19.08;5.25;;;1.70;57.60;;;;;;4952537;29;20027;-85
2024/03/06 08:13:36;;;;;;;12.93;4.60;;;2.00;57.00;;;;;;4970655;28;20038;-83
2024/03/06 08:16:04;;;;;;;12.02;5.00;;;1.90;56.30;;;;;;4964257;28;20023;-85
2024/03/06 08:18:30;;;;;;;9.40;4.55;;;1.80;56.90;;;;;;4955015;29;20030;-83
2024/03/06 08:20:56;;;;;;;9.70;5.43;;;1.80;56.80;;;;;;4954930;29;20068;-83
2024/03/06 08:23:25;;;;;;;10.00;4.10;;;1.70;56.60;;;;;;4955766;28;20063;-84
2024/03/06 08:25:52;;;;;;;7.93;4.28;;;1.60;56.20;;;;;;4951739;29;20024;-84
2024/03/06 08:28:18;;;;;;;17.83;4.20;;;1.60;56.70;;;;;;4952708;29;20074;-83
2024/03/06 08:30:44;;;;;;;9.23;4.50;;;2.00;56.30;;;;;;4952726;28;20308;-83
2024/03/06 08:33:11;;;;;;;6.40;4.93;;;1.80;55.70;;;;;;4958362;29;20063;-83
2024/03/06 08:35:37;;;;;;;9.40;4.10;;;2.10;56.60;;;;;;4952190;29;20024;-86
2024/03/06 08:38:03;;;;;;;15.00;5.65;;;1.70;55.20;;;;;;4947925;29;20027;-81
2024/03/06 08:40:29;;;;;;;18.65;6.47;;;1.70;54.60;;;;;;4955704;28;20058;-83
2024/03/06 08:42:56;;;;;;;10.98;4.88;;;1.80;55.10;;;;;;4959056;29;20027;-83
2024/03/06 08:45:23;;;;;;;6.72;4.10;;;2.00;54.20;;;;;;4959108;28;20021;-83
2024/03/06 08:47:49;;;;;;;5.47;3.58;;;2.10;53.70;;;;;;4958927;28;20027;-87
2024/03/06 08:50:15;;;;;;;11.70;4.15;;;1.90;53.50;;;;;;4956022;29;20133;-82
2024/03/06 08:52:41;;;;;;;10.70;4.97;;;1.90;54.40;;;;;;4955465;28;20539;-84
2024/03/06 08:55:07;;;;;;;11.35;4.50;;;2.20;54.20;;;;;;4950368;28;20035;-84
2024/03/06 08:57:34;;;;;;;8.43;3.95;;;2.40;53.70;;;;;;4949536;29;20134;-82
2024/03/06 09:00:00;;;;;;;7.77;3.30;;;2.50;52.70;;;;;;4953994;28;20031;-84
2024/03/06 09:02:27;;;;;;;11.00;4.50;;;2.70;52.50;;;;;;4955342;28;20269;-84
2024/03/06 09:04:53;;;;;;;9.05;4.05;;;2.90;52.50;;;;;;4954774;28;20125;-85
2024/03/06 09:07:23;;;;;;;8.80;5.07;;;3.00;51.60;;;;;;4955522;28;20043;-83
2024/03/06 09:09:51;;;;;;;8.93;4.43;;;2.80;51.50;;;;;;4958069;28;20039;-82
2024/03/06 09:12:17;;;;;;;8.93;4.10;;;2.60;51.00;;;;;;4957205;28;20039;-82
2024/03/06 09:14:44;;;;;;;8.25;3.33;;;2.40;51.70;;;;;;4956089;28;20043;-83
2024/03/06 09:17:14;;;;;;;6.15;3.45;;;2.30;51.80;;;;;;4955753;28;20031;-82
2024/03/06 09:19:41;;;;;;;11.68;3.83;;;1.80;51.80;;;;;;4946936;29;20035;-82
2024/03/06 09:22:07;;;;;;;19.97;4.37;;;1.70;52.00;;;;;;4958432;28;20019;-82
2024/03/06 09:24:33;;;;;;;6.35;3.17;;;1.80;51.90;;;;;;4956403;28;20111;-82
2024/03/06 09:26:59;;;;;;;5.88;3.03;;;2.00;51.80;;;;;;4955248;29;20019;-84
2024/03/06 09:29:24;;;;;;;7.70;3.38;;;2.10;51.60;;;;;;4955548;29;20035;-83
2024/03/06 09:31:50;;;;;;;7.32;3.95;;;2.20;51.40;;;;;;4956255;28;20022;-82
2024/03/06 09:34:16;;;;;;;8.10;3.78;;;2.20;50.60;;;;;;4954341;28;20027;-84
2024/03/06 09:36:47;;;;;;;9.52;3.42;;;2.50;51.30;;;;;;4957528;29;20062;-85
2024/03/06 09:39:16;;;;;;;10.30;3.30;;;2.70;50.80;;;;;;4958469;28;20031;-85
2024/03/06 09:41:46;;;;;;;9.32;3.75;;;2.70;50.30;;;;;;4955401;28;20031;-85
2024/03/06 09:44:16;;;;;;;7.40;3.05;;;2.80;50.50;;;;;;4954577;28;20027;-84
2024/03/06 09:46:46;;;;;;;9.10;3.78;;;2.60;50.30;;;;;;4954725;28;20515;-83
2024/03/06 09:49:15;;;;;;;10.68;5.25;;;2.50;50.60;;;;;;4954405;28;20485;-85
2024/03/06 09:51:45;;;;;;;15.57;4.30;;;2.40;50.50;;;;;;4954667;28;20047;-84
2024/03/06 09:54:14;;;;;;;10.85;3.83;;;2.30;50.90;;;;;;4953115;28;20030;-85
2024/03/06 09:56:43;;;;;;;11.10;4.03;;;2.20;51.20;;;;;;4972109;28;20023;-84
2024/03/06 09:59:09;;;;;;;7.80;3.75;;;2.10;51.90;;;;;;4954408;28;20170;-83
2024/03/06 10:01:49;;;;;;;10.43;4.07;;;2.00;52.00;;;;;;4954669;28;20016;-83
2024/03/06 10:04:23;;;;;;;12.65;4.38;;;2.00;52.70;;;;;;4949773;29;20115;-83
2024/03/06 10:06:50;;;;;;;14.13;5.13;;;2.30;51.80;;;;;;4954448;28;20039;-84
2024/03/06 10:09:19;;;;;;;7.57;3.45;;;2.30;50.90;;;;;;4955272;28;20082;-85
2024/03/06 10:11:45;;;;;;;10.10;4.30;;;2.00;51.50;;;;;;4940444;29;20019;-85
2024/03/06 10:14:12;;;;;;;7.85;3.85;;;1.80;51.70;;;;;;4952996;28;20027;-85
2024/03/06 10:16:51;;;;;;;4.88;3.25;;;1.90;51.80;;;;;;4955063;28;20023;-84
2024/03/06 10:19:18;;;;;;;5.97;4.22;;;1.80;51.50;;;;;;4961483;28;20039;-85
2024/03/06 10:21:48;;;;;;;4.75;2.95;;;1.70;51.40;;;;;;4954370;29;20374;-82
2024/03/06 10:24:21;;;;;;;10.13;4.32;;;1.70;51.20;;;;;;4953661;29;20035;-84
2024/03/06 10:26:47;;;;;;;7.05;4.28;;;2.10;51.70;;;;;;4952466;29;20039;-84
2024/03/06 10:29:20;;;;;;;13.02;4.47;;;2.30;51.60;;;;;;4951582;29;20110;-82
2024/03/06 10:31:56;;;;;;;11.52;5.22;;;2.60;51.00;;;;;;4936058;29;20032;-83
2024/03/06 10:34:24;;;;;;;9.55;4.93;;;2.60;50.60;;;;;;4956073;29;20066;-83
2024/03/06 10:36:57;;;;;;;12.32;4.10;;;2.60;50.30;;;;;;4951739;28;20412;-84
2024/03/06 10:39:24;;;;;;;5.50;3.55;;;2.70;49.70;;;;;;4951573;29;20031;-82
2024/03/06 10:41:55;;;;;;;8.05;4.20;;;2.70;49.50;;;;;;4933918;29;20036;-82
2024/03/06 10:44:30;;;;;;;12.40;5.28;;;2.80;50.10;;;;;;4951115;29;20110;-84
2024/03/06 10:47:00;;;;;;;9.40;4.78;;;3.00;49.90;;;;;;4951278;29;20039;-83
2024/03/06 10:49:27;;;;;;;7.05;4.00;;;3.20;50.30;;;;;;4951371;29;20032;-84
2024/03/06 10:51:59;;;;;;;10.23;4.15;;;3.40;49.60;;;;;;4951990;29;20031;-82
2024/03/06 10:54:29;;;;;;;5.40;3.22;;;3.50;49.50;;;;;;4953650;28;20030;-83
2024/03/06 10:56:56;;;;;;;15.73;4.50;;;3.50;49.00;;;;;;4952426;28;20027;-85
2024/03/06 10:59:26;;;;;;;12.53;4.80;;;3.50;48.30;;;;;;4954343;28;20019;-83
2024/03/06 11:01:54;;;;;;;8.75;5.80;;;3.50;48.70;;;;;;4949477;29;20352;-84
2024/03/06 11:04:20;;;;;;;7.38;4.10;;;3.50;48.20;;;;;;4950085;29;20032;-83
2024/03/06 11:06:46;;;;;;;13.23;4.60;;;3.60;48.50;;;;;;4954111;28;20035;-83
2024/03/06 11:09:14;;;;;;;7.20;3.92;;;3.30;48.20;;;;;;4968802;28;20559;-84
2024/03/06 11:11:54;;;;;;;9.73;5.13;;;3.20;47.90;;;;;;4952348;29;20023;-83
2024/03/06 11:14:24;;;;;;;8.00;3.75;;;2.90;47.90;;;;;;4953787;28;20035;-82
2024/03/06 11:17:03;;;;;;;7.07;4.78;;;2.90;48.10;;;;;;4953951;28;20023;-83
2024/03/06 11:19:30;;;;;;;8.05;3.50;;;3.00;48.30;;;;;;4952753;29;20653;-84
2024/03/06 11:21:56;;;;;;;6.40;3.33;;;3.10;47.90;;;;;;4944361;29;20062;-83
2024/03/06 11:24:35;;;;;;;13.55;4.35;;;3.20;47.90;;;;;;4958414;28;20122;-84
2024/03/06 11:27:07;;;;;;;9.27;4.07;;;3.40;47.60;;;;;;4957346;28;20039;-83
2024/03/06 11:30:13;;;;;;;10.35;3.90;;;3.20;47.30;;;;;;4956921;28;20034;-84
2024/03/06 11:32:58;;;;;;;10.80;4.67;;;3.20;47.60;;;;;;4952427;29;20027;-83
2024/03/06 11:35:24;;;;;;;11.02;4.43;;;3.20;48.00;;;;;;4970876;28;20027;-82
2024/03/06 11:37:52;;;;;;;7.75;3.92;;;3.30;48.00;;;;;;4956449;29;20020;-85
2024/03/06 11:40:27;;;;;;;7.70;3.63;;;3.20;47.90;;;;;;4956483;28;20073;-82
2024/03/06 11:42:53;;;;;;;6.80;4.25;;;2.90;47.50;;;;;;4956450;28;20114;-84
2024/03/06 11:45:24;;;;;;;9.77;4.35;;;2.60;47.50;;;;;;4956341;28;20098;-83
2024/03/06 11:48:05;;;;;;;11.38;3.60;;;2.40;48.00;;;;;;4956502;28;20086;-82
2024/03/06 11:50:31;;;;;;;9.85;3.92;;;2.50;48.20;;;;;;4956541;29;20075;-83
2024/03/06 11:52:58;;;;;;;9.75;4.05;;;2.40;48.20;;;;;;4956481;28;20069;-82
2024/03/06 11:55:27;;;;;;;7.30;3.58;;;2.40;48.00;;;;;;4958842;29;20550;-83
2024/03/06 11:57:53;;;;;;;7.10;3.95;;;2.40;47.90;;;;;;4954941;28;20453;-83
2024/03/06 12:00:23;;;;;;;12.43;3.55;;;2.30;48.00;;;;;;4971431;28;20038;-83
2024/03/06 12:02:49;;;;;;;7.13;3.50;;;2.20;48.40;;;;;;4943780;28;20059;-84
2024/03/06 12:05:16;;;;;;;7.33;4.10;;;2.10;48.50;;;;;;4955732;29;20059;-81
2024/03/06 12:07:49;;;;;;;10.27;3.90;;;2.00;48.40;;;;;;4955583;28;20802;-85
2024/03/06 12:10:17;;;;;;;9.82;4.03;;;1.80;48.40;;;;;;4955354;28;20546;-85
2024/03/06 12:12:44;;;;;;;13.18;3.97;;;1.60;48.60;;;;;;4956626;28;20038;-82
2024/03/06 12:15:14;;;;;;;12.57;4.43;;;1.50;48.90;;;;;;4972801;28;20741;-84
2024/03/06 12:17:51;;;;;;;8.88;4.05;;;1.50;48.60;;;;;;4952585;29;20038;-83
2024/03/06 12:20:18;;;;;;;7.18;4.10;;;1.50;48.90;;;;;;4946541;29;20027;-85
2024/03/06 12:22:45;;;;;;;7.23;3.30;;;1.60;49.00;;;;;;4959149;28;20421;-82
2024/03/06 12:25:20;;;;;;;5.30;3.17;;;1.60;48.60;;;;;;4941286;28;20308;-83
2024/03/06 12:27:46;;;;;;;8.95;3.05;;;1.60;48.00;;;;;;4955760;28;20039;-82
2024/03/06 12:30:13;;;;;;;8.27;2.88;;;1.60;48.20;;;;;;4955568;28;20023;-84
2024/03/06 12:32:39;;;;;;;7.28;2.90;;;1.60;48.10;;;;;;4956287;28;20023;-85
2024/03/06 12:35:05;;;;;;;7.97;3.63;;;1.70;48.20;;;;;;4955857;28;20023;-82
2024/03/06 12:37:32;;;;;;;10.07;4.30;;;1.70;47.90;;;;;;4956616;28;20051;-85
2024/03/06 12:39:58;;;;;;;15.03;4.17;;;1.90;48.30;;;;;;4943663;28;20050;-82
2024/03/06 12:42:24;;;;;;;7.13;4.03;;;2.10;48.00;;;;;;4957335;29;20296;-84
2024/03/06 12:44:51;;;;;;;6.57;2.87;;;2.20;47.10;;;;;;4959960;28;20140;-84
2024/03/06 12:47:17;;;;;;;5.30;2.65;;;2.40;46.50;;;;;;4958711;28;20047;-84